»·PEaware :: N15JG KBAM-KENV

N15JG :: KBAM-KENV

FLIGHT INFORMATION

Flight Status: Arrived
Operator: Privately registered:
United States
More flights under this callsign
Pilot: Anonymous 11047 (11047)
Aircraft: MOONEY M-20 201 202 205 220 ATS MSE
(M20P)
More flights by this aircraft type
Origin: KBAM Battle Mountain
United States
Destination: KENV Wendover
United States
More flights between these airports :: More routes between these airports
Route: +
File this flight plan on PilotEdge
Remarks:
Altitude:
(Current/Filed)
0ft
Speed:
(Current/Filed)
0kts
Departed: 23-Apr-18 10:51 AM
Arrived: 23-Apr-18 11:43 AM
Distance/Time
Traveled:
129nm/0:52
Distance/Time
To Go:
Arrived

Flight Plot

Page will automatically refresh every two minutes.

Flight plan parsing failed; only flown route is shown


Map Options




Map Legend


Flown Route
Filed Route
Departure Airport
Arrival Airport
Navaid (VOR, NDB)
Fix

Horizontal Profiles

Position Reports

Time Latitude Longitude Heading Altitude Ground
Speed
23-Apr-18 10:49 40.608738 -116.528832 116 9219ft 183kts
23-Apr-18 10:50 40.612030 -116.469731 66 9469ft 164kts
23-Apr-18 10:51 40.629774 -116.414082 65 9516ft 164kts
23-Apr-18 10:52 40.644586 -116.356821 70 9564ft 164kts
23-Apr-18 10:53 40.658301 -116.303460 74 9587ft 165kts
23-Apr-18 10:54 40.671533 -116.243833 71 9463ft 170kts
23-Apr-18 10:55 40.686482 -116.187165 73 9417ft 169kts
23-Apr-18 10:56 40.698677 -116.127877 81 9467ft 165kts
23-Apr-18 10:57 40.705840 -116.067956 81 9514ft 164kts
23-Apr-18 10:58 40.713929 -116.018678 73 9523ft 166kts
23-Apr-18 10:59 40.725565 -115.959778 78 9552ft 166kts
23-Apr-18 11:00 40.735269 -115.889997 68 9542ft 168kts
23-Apr-18 11:01 40.752240 -115.833555 73 9619ft 165kts
23-Apr-18 11:02 40.764677 -115.774021 73 9493ft 172kts
23-Apr-18 11:03 40.776447 -115.713443 73 9452ft 170kts
23-Apr-18 11:04 40.790935 -115.655398 74 9507ft 166kts
23-Apr-18 11:05 40.801285 -115.595665 72 9497ft 169kts
23-Apr-18 11:06 40.816525 -115.536056 68 9451ft 171kts
23-Apr-18 11:07 40.833256 -115.488876 60 9552ft 164kts
23-Apr-18 11:08 40.850451 -115.431347 80 9496ft 169kts
23-Apr-18 11:09 40.854457 -115.376978 95 9563ft 167kts
23-Apr-18 11:10 40.852110 -115.331451 89 9520ft 170kts
23-Apr-18 11:11 40.851978 -115.269242 95 9500ft 171kts
23-Apr-18 11:12 40.835411 -115.220251 134 9503ft 164kts
23-Apr-18 11:13 40.804200 -115.176269 131 9448ft 166kts
23-Apr-18 11:14 40.780688 -115.123478 116 9373ft 169kts
23-Apr-18 11:15 40.773332 -115.063778 90 9497ft 165kts
23-Apr-18 11:16 40.773339 -115.003909 100 9610ft 164kts
23-Apr-18 11:17 40.764083 -114.945025 108 9632ft 159kts
23-Apr-18 11:18 40.753580 -114.889211 107 9648ft 154kts
23-Apr-18 11:19 40.743543 -114.833235 107 9531ft 156kts
23-Apr-18 11:20 40.744783 -114.776081 87 9483ft 157kts
23-Apr-18 11:21 40.749381 -114.718233 86 9421ft 156kts
23-Apr-18 11:22 40.755397 -114.662174 90 9501ft 151kts
23-Apr-18 11:23 40.758415 -114.605655 87 9455ft 156kts
23-Apr-18 11:24 40.759070 -114.548755 96 9434ft 154kts
23-Apr-18 11:25 40.762205 -114.492156 81 9418ft 156kts
23-Apr-18 11:26 40.769877 -114.436091 84 9462ft 153kts
23-Apr-18 11:27 40.772223 -114.379937 89 9478ft 153kts
23-Apr-18 11:28 40.773799 -114.329784 90 9362ft 160kts
23-Apr-18 11:29 40.772839 -114.271314 106 9215ft 159kts
23-Apr-18 11:30 40.765036 -114.214755 100 8217ft 162kts
23-Apr-18 11:31 40.781277 -114.169569 13 7374ft 156kts
23-Apr-18 11:32 40.806314 -114.198080 238 6812ft 141kts
23-Apr-18 11:33 40.780731 -114.185206 125 6298ft 122kts
23-Apr-18 11:34 40.749771 -114.164031 156 5758ft 120kts
23-Apr-18 11:35 40.720593 -114.146989 149 5380ft 112kts
23-Apr-18 11:36 40.695963 -114.125984 139 5271ft 104kts
23-Apr-18 11:37 40.685806 -114.090949 93 5174ft 113kts
23-Apr-18 11:38 40.682972 -114.048736 75 5149ft 118kts
23-Apr-18 11:39 40.712904 -114.045979 317 5109ft 128kts
23-Apr-18 11:40 40.738138 -114.066881 54 4877ft 96kts
23-Apr-18 11:41 40.726942 -114.043923 136 4270ft 69kts
23-Apr-18 11:42 40.720034 -114.034064 91 4226ft 0kts
23-Apr-18 11:43 40.720574 -114.033644 301 4226ft 14kts
23-Apr-18 11:44 40.724665 -114.039019 315 4234ft 18kts
23-Apr-18 11:45 40.726715 -114.039618 102 4240ft 6kts
23-Apr-18 11:46 40.727410 -114.038083 280 4240ft 3kts
23-Apr-18 11:47 40.727411 -114.038225 268 4240ft 0kts

Navigation Log

Ident Type
Flight plan parsing failed, navigation log unavailable